sensor_id;sensor_type;location;lat;lon;timestamp;P1;durP1;ratioP1;P2;durP2;ratioP2
5967;SDS011;3010;51.028;4.170;2022-09-09T00:00:53;8.25;;;5.00;;
5967;SDS011;3010;51.028;4.170;2022-09-09T00:03:17;8.83;;;4.23;;
5967;SDS011;3010;51.028;4.170;2022-09-09T00:08:22;11.27;;;4.40;;
5967;SDS011;3010;51.028;4.170;2022-09-09T00:10:49;10.47;;;3.93;;
5967;SDS011;3010;51.028;4.170;2022-09-09T00:13:31;10.97;;;4.90;;
5967;SDS011;3010;51.028;4.170;2022-09-09T00:21:06;7.93;;;4.20;;
5967;SDS011;3010;51.028;4.170;2022-09-09T00:23:35;6.47;;;3.50;;
5967;SDS011;3010;51.028;4.170;2022-09-09T00:28:33;9.90;;;5.03;;
5967;SDS011;3010;51.028;4.170;2022-09-09T00:30:59;7.70;;;3.90;;
5967;SDS011;3010;51.028;4.170;2022-09-09T00:33:24;6.43;;;3.63;;
5967;SDS011;3010;51.028;4.170;2022-09-09T00:35:51;3.60;;;3.30;;
5967;SDS011;3010;51.028;4.170;2022-09-09T00:38:23;4.30;;;3.20;;
5967;SDS011;3010;51.028;4.170;2022-09-09T00:40:52;6.83;;;3.20;;
5967;SDS011;3010;51.028;4.170;2022-09-09T00:43:25;6.90;;;3.33;;
5967;SDS011;3010;51.028;4.170;2022-09-09T00:46:14;6.20;;;3.20;;
5967;SDS011;3010;51.028;4.170;2022-09-09T00:48:50;9.67;;;2.87;;
5967;SDS011;3010;51.028;4.170;2022-09-09T00:51:23;7.43;;;3.50;;
5967;SDS011;3010;51.028;4.170;2022-09-09T00:56:40;10.98;;;4.15;;
5967;SDS011;3010;51.028;4.170;2022-09-09T01:01:50;14.47;;;3.23;;
5967;SDS011;3010;51.028;4.170;2022-09-09T01:04:16;4.57;;;3.17;;
5967;SDS011;3010;51.028;4.170;2022-09-09T01:06:43;7.03;;;3.30;;
5967;SDS011;3010;51.028;4.170;2022-09-09T01:12:01;5.33;;;3.20;;
5967;SDS011;3010;51.028;4.170;2022-09-09T01:17:11;10.27;;;3.63;;
5967;SDS011;3010;51.028;4.170;2022-09-09T01:22:16;7.90;;;3.23;;
5967;SDS011;3010;51.028;4.170;2022-09-09T01:24:50;5.80;;;3.27;;
5967;SDS011;3010;51.028;4.170;2022-09-09T01:27:11;9.37;;;3.30;;
5967;SDS011;3010;51.028;4.170;2022-09-09T01:29:38;4.90;;;3.50;;
5967;SDS011;3010;51.028;4.170;2022-09-09T01:35:06;7.07;;;3.50;;
5967;SDS011;3010;51.028;4.170;2022-09-09T01:37:32;11.95;;;5.20;;
5967;SDS011;3010;51.028;4.170;2022-09-09T01:39:58;6.23;;;4.20;;
5967;SDS011;3010;51.028;4.170;2022-09-09T01:42:25;9.60;;;4.13;;
5967;SDS011;3010;51.028;4.170;2022-09-09T01:44:51;12.47;;;4.93;;
5967;SDS011;3010;51.028;4.170;2022-09-09T01:47:18;11.20;;;5.03;;
5967;SDS011;3010;51.028;4.170;2022-09-09T01:49:45;6.77;;;4.87;;
5967;SDS011;3010;51.028;4.170;2022-09-09T01:52:11;15.10;;;5.40;;
5967;SDS011;3010;51.028;4.170;2022-09-09T01:54:38;18.23;;;7.43;;
5967;SDS011;3010;51.028;4.170;2022-09-09T01:57:21;13.73;;;5.57;;
5967;SDS011;3010;51.028;4.170;2022-09-09T02:00:00;16.17;;;6.00;;
5967;SDS011;3010;51.028;4.170;2022-09-09T02:02:32;17.53;;;6.43;;
5967;SDS011;3010;51.028;4.170;2022-09-09T02:07:57;19.65;;;8.90;;
5967;SDS011;3010;51.028;4.170;2022-09-09T02:10:42;25.10;;;9.07;;
5967;SDS011;3010;51.028;4.170;2022-09-09T02:13:07;15.77;;;7.33;;
5967;SDS011;3010;51.028;4.170;2022-09-09T02:18:01;16.30;;;5.83;;
5967;SDS011;3010;51.028;4.170;2022-09-09T02:20:28;13.27;;;5.23;;
5967;SDS011;3010;51.028;4.170;2022-09-09T02:22:54;20.13;;;8.13;;
5967;SDS011;3010;51.028;4.170;2022-09-09T02:25:22;19.13;;;6.23;;
5967;SDS011;3010;51.028;4.170;2022-09-09T02:27:47;17.43;;;5.40;;
5967;SDS011;3010;51.028;4.170;2022-09-09T02:30:14;15.10;;;5.47;;
5967;SDS011;3010;51.028;4.170;2022-09-09T02:32:40;11.10;;;5.57;;
5967;SDS011;3010;51.028;4.170;2022-09-09T02:35:09;13.90;;;5.40;;
5967;SDS011;3010;51.028;4.170;2022-09-09T02:37:37;10.77;;;5.37;;
5967;SDS011;3010;51.028;4.170;2022-09-09T02:40:04;5.63;;;4.90;;
5967;SDS011;3010;51.028;4.170;2022-09-09T02:42:30;13.80;;;5.60;;
5967;SDS011;3010;51.028;4.170;2022-09-09T02:44:56;10.77;;;5.07;;
5967;SDS011;3010;51.028;4.170;2022-09-09T02:47:36;11.67;;;4.93;;
5967;SDS011;3010;51.028;4.170;2022-09-09T02:50:12;16.60;;;5.67;;
5967;SDS011;3010;51.028;4.170;2022-09-09T02:55:24;10.63;;;4.73;;
5967;SDS011;3010;51.028;4.170;2022-09-09T02:57:48;15.70;;;5.53;;
5967;SDS011;3010;51.028;4.170;2022-09-09T03:00:15;23.37;;;6.53;;
5967;SDS011;3010;51.028;4.170;2022-09-09T03:02:41;18.07;;;5.37;;
5967;SDS011;3010;51.028;4.170;2022-09-09T03:05:08;17.03;;;5.43;;
5967;SDS011;3010;51.028;4.170;2022-09-09T03:07:34;14.47;;;5.20;;
5967;SDS011;3010;51.028;4.170;2022-09-09T03:10:01;7.23;;;5.00;;
5967;SDS011;3010;51.028;4.170;2022-09-09T03:12:28;17.93;;;5.00;;
5967;SDS011;3010;51.028;4.170;2022-09-09T03:14:54;13.67;;;4.70;;
5967;SDS011;3010;51.028;4.170;2022-09-09T03:17:21;12.40;;;4.83;;
5967;SDS011;3010;51.028;4.170;2022-09-09T03:19:47;14.57;;;5.10;;
5967;SDS011;3010;51.028;4.170;2022-09-09T03:22:14;15.03;;;5.10;;
5967;SDS011;3010;51.028;4.170;2022-09-09T03:24:41;14.57;;;4.50;;
5967;SDS011;3010;51.028;4.170;2022-09-09T03:27:07;11.17;;;4.83;;
5967;SDS011;3010;51.028;4.170;2022-09-09T03:29:34;10.47;;;4.27;;
5967;SDS011;3010;51.028;4.170;2022-09-09T03:32:00;13.60;;;4.67;;
5967;SDS011;3010;51.028;4.170;2022-09-09T03:34:27;14.47;;;5.20;;
5967;SDS011;3010;51.028;4.170;2022-09-09T03:36:53;17.10;;;4.90;;
5967;SDS011;3010;51.028;4.170;2022-09-09T03:39:20;11.77;;;4.53;;
5967;SDS011;3010;51.028;4.170;2022-09-09T03:41:47;14.63;;;5.60;;
5967;SDS011;3010;51.028;4.170;2022-09-09T03:44:13;14.03;;;5.27;;
5967;SDS011;3010;51.028;4.170;2022-09-09T03:46:40;14.73;;;4.47;;
5967;SDS011;3010;51.028;4.170;2022-09-09T03:49:06;16.20;;;4.97;;
5967;SDS011;3010;51.028;4.170;2022-09-09T03:51:33;12.37;;;5.07;;
5967;SDS011;3010;51.028;4.170;2022-09-09T03:54:00;13.60;;;5.47;;
5967;SDS011;3010;51.028;4.170;2022-09-09T03:56:26;18.50;;;5.10;;
5967;SDS011;3010;51.028;4.170;2022-09-09T03:58:53;11.53;;;4.27;;
5967;SDS011;3010;51.028;4.170;2022-09-09T04:01:20;12.67;;;5.43;;
5967;SDS011;3010;51.028;4.170;2022-09-09T04:03:46;13.88;;;5.78;;
5967;SDS011;3010;51.028;4.170;2022-09-09T04:06:13;15.83;;;5.10;;
5967;SDS011;3010;51.028;4.170;2022-09-09T04:08:40;10.27;;;4.33;;
5967;SDS011;3010;51.028;4.170;2022-09-09T04:11:07;18.40;;;5.47;;
5967;SDS011;3010;51.028;4.170;2022-09-09T04:13:34;13.60;;;4.27;;
5967;SDS011;3010;51.028;4.170;2022-09-09T04:16:01;10.40;;;4.33;;
5967;SDS011;3010;51.028;4.170;2022-09-09T04:18:27;17.00;;;4.70;;
5967;SDS011;3010;51.028;4.170;2022-09-09T04:20:54;15.17;;;4.80;;
5967;SDS011;3010;51.028;4.170;2022-09-09T04:23:20;18.00;;;5.57;;
5967;SDS011;3010;51.028;4.170;2022-09-09T04:25:48;17.53;;;5.30;;
5967;SDS011;3010;51.028;4.170;2022-09-09T04:28:14;17.10;;;5.00;;
5967;SDS011;3010;51.028;4.170;2022-09-09T04:30:40;19.50;;;5.30;;
5967;SDS011;3010;51.028;4.170;2022-09-09T04:33:07;12.80;;;5.00;;
5967;SDS011;3010;51.028;4.170;2022-09-09T04:35:33;15.50;;;4.80;;
5967;SDS011;3010;51.028;4.170;2022-09-09T04:38:00;14.37;;;4.87;;
5967;SDS011;3010;51.028;4.170;2022-09-09T04:40:26;13.77;;;5.17;;
5967;SDS011;3010;51.028;4.170;2022-09-09T04:42:53;15.50;;;5.10;;
5967;SDS011;3010;51.028;4.170;2022-09-09T04:45:19;12.37;;;4.90;;
5967;SDS011;3010;51.028;4.170;2022-09-09T04:47:46;11.80;;;4.73;;
5967;SDS011;3010;51.028;4.170;2022-09-09T04:50:13;12.93;;;4.80;;
5967;SDS011;3010;51.028;4.170;2022-09-09T04:52:39;18.07;;;5.07;;
5967;SDS011;3010;51.028;4.170;2022-09-09T04:55:06;14.40;;;5.40;;
5967;SDS011;3010;51.028;4.170;2022-09-09T04:57:34;14.17;;;4.90;;
5967;SDS011;3010;51.028;4.170;2022-09-09T04:59:59;15.23;;;4.67;;
5967;SDS011;3010;51.028;4.170;2022-09-09T05:02:26;14.93;;;4.00;;
5967;SDS011;3010;51.028;4.170;2022-09-09T05:04:53;9.93;;;4.60;;
5967;SDS011;3010;51.028;4.170;2022-09-09T05:07:19;11.40;;;4.77;;
5967;SDS011;3010;51.028;4.170;2022-09-09T05:09:46;10.90;;;4.70;;
5967;SDS011;3010;51.028;4.170;2022-09-09T05:12:12;14.03;;;5.17;;
5967;SDS011;3010;51.028;4.170;2022-09-09T05:14:39;15.33;;;4.93;;
5967;SDS011;3010;51.028;4.170;2022-09-09T05:17:06;11.47;;;5.33;;
5967;SDS011;3010;51.028;4.170;2022-09-09T05:19:32;18.63;;;5.77;;
5967;SDS011;3010;51.028;4.170;2022-09-09T05:21:59;12.77;;;4.70;;
5967;SDS011;3010;51.028;4.170;2022-09-09T05:24:25;15.27;;;5.77;;
5967;SDS011;3010;51.028;4.170;2022-09-09T05:26:52;19.23;;;6.47;;
5967;SDS011;3010;51.028;4.170;2022-09-09T05:29:19;13.73;;;5.07;;
5967;SDS011;3010;51.028;4.170;2022-09-09T05:31:45;12.37;;;5.90;;
5967;SDS011;3010;51.028;4.170;2022-09-09T05:34:12;16.93;;;5.37;;
5967;SDS011;3010;51.028;4.170;2022-09-09T05:36:38;19.43;;;6.23;;
5967;SDS011;3010;51.028;4.170;2022-09-09T05:39:05;16.60;;;5.67;;
5967;SDS011;3010;51.028;4.170;2022-09-09T05:41:32;17.87;;;4.90;;
5967;SDS011;3010;51.028;4.170;2022-09-09T05:43:58;16.20;;;4.70;;
5967;SDS011;3010;51.028;4.170;2022-09-09T05:46:25;11.47;;;4.43;;
5967;SDS011;3010;51.028;4.170;2022-09-09T05:48:52;13.73;;;5.57;;
5967;SDS011;3010;51.028;4.170;2022-09-09T05:51:23;13.30;;;5.40;;
5967;SDS011;3010;51.028;4.170;2022-09-09T05:53:45;10.37;;;5.00;;
5967;SDS011;3010;51.028;4.170;2022-09-09T05:56:16;13.30;;;5.13;;
5967;SDS011;3010;51.028;4.170;2022-09-09T05:58:38;20.73;;;5.90;;
5967;SDS011;3010;51.028;4.170;2022-09-09T06:01:05;12.80;;;5.30;;
5967;SDS011;3010;51.028;4.170;2022-09-09T06:03:31;14.27;;;4.80;;
5967;SDS011;3010;51.028;4.170;2022-09-09T06:06:02;15.17;;;5.33;;
5967;SDS011;3010;51.028;4.170;2022-09-09T06:08:27;18.03;;;5.50;;
5967;SDS011;3010;51.028;4.170;2022-09-09T06:11:00;16.73;;;4.53;;
5967;SDS011;3010;51.028;4.170;2022-09-09T06:13:20;12.40;;;4.17;;
5967;SDS011;3010;51.028;4.170;2022-09-09T06:15:50;12.53;;;4.73;;
5967;SDS011;3010;51.028;4.170;2022-09-09T06:18:16;12.30;;;4.63;;
5967;SDS011;3010;51.028;4.170;2022-09-09T06:20:43;10.87;;;4.40;;
5967;SDS011;3010;51.028;4.170;2022-09-09T06:23:09;15.07;;;5.07;;
5967;SDS011;3010;51.028;4.170;2022-09-09T06:25:36;14.23;;;5.07;;
5967;SDS011;3010;51.028;4.170;2022-09-09T06:28:03;15.37;;;4.47;;
5967;SDS011;3010;51.028;4.170;2022-09-09T06:30:29;17.50;;;5.33;;
5967;SDS011;3010;51.028;4.170;2022-09-09T06:32:56;16.00;;;5.63;;
5967;SDS011;3010;51.028;4.170;2022-09-09T06:35:22;14.27;;;5.20;;
5967;SDS011;3010;51.028;4.170;2022-09-09T06:37:49;15.83;;;5.30;;
5967;SDS011;3010;51.028;4.170;2022-09-09T06:40:15;10.37;;;4.70;;
5967;SDS011;3010;51.028;4.170;2022-09-09T06:42:42;20.10;;;5.93;;
5967;SDS011;3010;51.028;4.170;2022-09-09T06:45:09;17.13;;;6.70;;
5967;SDS011;3010;51.028;4.170;2022-09-09T06:47:35;14.47;;;5.13;;
5967;SDS011;3010;51.028;4.170;2022-09-09T06:50:02;18.13;;;7.20;;
5967;SDS011;3010;51.028;4.170;2022-09-09T06:52:29;18.07;;;5.40;;
5967;SDS011;3010;51.028;4.170;2022-09-09T06:54:55;9.40;;;4.40;;
5967;SDS011;3010;51.028;4.170;2022-09-09T06:57:22;12.13;;;4.70;;
5967;SDS011;3010;51.028;4.170;2022-09-09T06:59:48;11.63;;;4.90;;
5967;SDS011;3010;51.028;4.170;2022-09-09T07:02:15;8.47;;;4.40;;
5967;SDS011;3010;51.028;4.170;2022-09-09T07:04:42;13.93;;;4.70;;
5967;SDS011;3010;51.028;4.170;2022-09-09T07:07:08;11.67;;;4.63;;
5967;SDS011;3010;51.028;4.170;2022-09-09T07:09:35;12.83;;;4.53;;
5967;SDS011;3010;51.028;4.170;2022-09-09T07:12:01;10.10;;;4.77;;
5967;SDS011;3010;51.028;4.170;2022-09-09T07:14:28;13.27;;;4.60;;
5967;SDS011;3010;51.028;4.170;2022-09-09T07:16:55;14.63;;;4.37;;
5967;SDS011;3010;51.028;4.170;2022-09-09T07:19:21;10.07;;;4.43;;
5967;SDS011;3010;51.028;4.170;2022-09-09T07:21:48;12.13;;;3.90;;
5967;SDS011;3010;51.028;4.170;2022-09-09T07:24:14;17.23;;;4.97;;
5967;SDS011;3010;51.028;4.170;2022-09-09T07:26:41;15.23;;;4.63;;
5967;SDS011;3010;51.028;4.170;2022-09-09T07:29:08;8.90;;;3.77;;
5967;SDS011;3010;51.028;4.170;2022-09-09T07:31:35;11.40;;;4.40;;
5967;SDS011;3010;51.028;4.170;2022-09-09T07:34:01;10.03;;;4.07;;
5967;SDS011;3010;51.028;4.170;2022-09-09T07:36:30;7.77;;;5.17;;
5967;SDS011;3010;51.028;4.170;2022-09-09T07:38:58;14.93;;;4.90;;
5967;SDS011;3010;51.028;4.170;2022-09-09T07:41:33;9.03;;;4.37;;
5967;SDS011;3010;51.028;4.170;2022-09-09T07:43:58;8.43;;;3.80;;
5967;SDS011;3010;51.028;4.170;2022-09-09T07:46:25;10.23;;;4.10;;
5967;SDS011;3010;51.028;4.170;2022-09-09T07:48:53;10.07;;;4.60;;
5967;SDS011;3010;51.028;4.170;2022-09-09T07:51:22;10.20;;;4.03;;
5967;SDS011;3010;51.028;4.170;2022-09-09T07:53:48;14.73;;;4.33;;
5967;SDS011;3010;51.028;4.170;2022-09-09T07:56:15;10.70;;;4.03;;
5967;SDS011;3010;51.028;4.170;2022-09-09T07:58:41;11.13;;;4.30;;
5967;SDS011;3010;51.028;4.170;2022-09-09T08:01:12;9.37;;;3.50;;
5967;SDS011;3010;51.028;4.170;2022-09-09T08:03:34;8.60;;;3.30;;
5967;SDS011;3010;51.028;4.170;2022-09-09T08:06:01;5.67;;;4.03;;
5967;SDS011;3010;51.028;4.170;2022-09-09T08:08:29;7.53;;;3.57;;
5967;SDS011;3010;51.028;4.170;2022-09-09T08:11:03;8.77;;;3.20;;
5967;SDS011;3010;51.028;4.170;2022-09-09T08:13:31;4.10;;;3.10;;
5967;SDS011;3010;51.028;4.170;2022-09-09T08:16:05;8.17;;;4.13;;
5967;SDS011;3010;51.028;4.170;2022-09-09T08:18:30;6.67;;;3.70;;
5967;SDS011;3010;51.028;4.170;2022-09-09T08:20:57;8.97;;;3.83;;
5967;SDS011;3010;51.028;4.170;2022-09-09T08:23:23;7.63;;;3.47;;
5967;SDS011;3010;51.028;4.170;2022-09-09T08:25:50;10.27;;;4.00;;
5967;SDS011;3010;51.028;4.170;2022-09-09T08:28:17;7.57;;;3.10;;
5967;SDS011;3010;51.028;4.170;2022-09-09T08:30:43;7.60;;;3.17;;
5967;SDS011;3010;51.028;4.170;2022-09-09T08:33:10;13.13;;;3.40;;
5967;SDS011;3010;51.028;4.170;2022-09-09T08:35:36;9.23;;;3.43;;
5967;SDS011;3010;51.028;4.170;2022-09-09T08:38:03;12.90;;;3.67;;
5967;SDS011;3010;51.028;4.170;2022-09-09T08:40:31;10.20;;;3.60;;
5967;SDS011;3010;51.028;4.170;2022-09-09T08:42:56;6.87;;;3.53;;
5967;SDS011;3010;51.028;4.170;2022-09-09T08:45:24;9.57;;;3.30;;
5967;SDS011;3010;51.028;4.170;2022-09-09T08:50:35;7.33;;;3.17;;
5967;SDS011;3010;51.028;4.170;2022-09-09T08:58:28;8.75;;;3.58;;
5967;SDS011;3010;51.028;4.170;2022-09-09T09:01:09;6.47;;;3.77;;
5967;SDS011;3010;51.028;4.170;2022-09-09T09:09:16;7.27;;;3.50;;
5967;SDS011;3010;51.028;4.170;2022-09-09T09:11:50;6.37;;;3.23;;
5967;SDS011;3010;51.028;4.170;2022-09-09T09:14:23;6.30;;;3.77;;
5967;SDS011;3010;51.028;4.170;2022-09-09T09:19:28;8.53;;;3.63;;
5967;SDS011;3010;51.028;4.170;2022-09-09T09:22:10;9.53;;;3.30;;
5967;SDS011;3010;51.028;4.170;2022-09-09T09:24:52;7.32;;;3.83;;
5967;SDS011;3010;51.028;4.170;2022-09-09T09:27:39;8.87;;;3.03;;
5967;SDS011;3010;51.028;4.170;2022-09-09T09:30:15;6.15;;;3.20;;
5967;SDS011;3010;51.028;4.170;2022-09-09T09:32:41;9.30;;;3.20;;
5967;SDS011;3010;51.028;4.170;2022-09-09T09:35:09;7.90;;;3.53;;
5967;SDS011;3010;51.028;4.170;2022-09-09T09:37:34;4.13;;;3.17;;
5967;SDS011;3010;51.028;4.170;2022-09-09T09:40:13;6.00;;;3.10;;
5967;SDS011;3010;51.028;4.170;2022-09-09T09:42:50;6.23;;;3.10;;
5967;SDS011;3010;51.028;4.170;2022-09-09T09:45:17;9.00;;;3.40;;
5967;SDS011;3010;51.028;4.170;2022-09-09T09:47:43;9.87;;;3.33;;
5967;SDS011;3010;51.028;4.170;2022-09-09T09:50:17;9.37;;;3.47;;
5967;SDS011;3010;51.028;4.170;2022-09-09T09:52:51;9.37;;;3.70;;
5967;SDS011;3010;51.028;4.170;2022-09-09T09:55:12;7.77;;;3.30;;
5967;SDS011;3010;51.028;4.170;2022-09-09T09:57:37;7.37;;;3.50;;
5967;SDS011;3010;51.028;4.170;2022-09-09T10:00:17;11.10;;;4.00;;
5967;SDS011;3010;51.028;4.170;2022-09-09T10:02:43;7.93;;;3.20;;
5967;SDS011;3010;51.028;4.170;2022-09-09T10:05:14;6.70;;;3.17;;
5967;SDS011;3010;51.028;4.170;2022-09-09T10:07:41;10.83;;;3.47;;
5967;SDS011;3010;51.028;4.170;2022-09-09T10:10:13;8.00;;;3.13;;
5967;SDS011;3010;51.028;4.170;2022-09-09T10:20:58;5.30;;;2.70;;
5967;SDS011;3010;51.028;4.170;2022-09-09T10:23:29;4.20;;;2.67;;
5967;SDS011;3010;51.028;4.170;2022-09-09T10:25:57;3.90;;;2.70;;
5967;SDS011;3010;51.028;4.170;2022-09-09T10:31:14;3.17;;;2.87;;
5967;SDS011;3010;51.028;4.170;2022-09-09T10:33:50;10.60;;;2.60;;
5967;SDS011;3010;51.028;4.170;2022-09-09T10:36:21;3.77;;;2.40;;
5967;SDS011;3010;51.028;4.170;2022-09-09T10:47:40;5.30;;;2.40;;
5967;SDS011;3010;51.028;4.170;2022-09-09T10:53:02;3.03;;;2.27;;
5967;SDS011;3010;51.028;4.170;2022-09-09T10:55:28;4.73;;;2.40;;
5967;SDS011;3010;51.028;4.170;2022-09-09T10:57:57;6.97;;;2.97;;
5967;SDS011;3010;51.028;4.170;2022-09-09T11:00:25;6.32;;;2.70;;
5967;SDS011;3010;51.028;4.170;2022-09-09T11:03:02;3.83;;;2.47;;
5967;SDS011;3010;51.028;4.170;2022-09-09T11:05:42;3.33;;;2.23;;
5967;SDS011;3010;51.028;4.170;2022-09-09T11:21:58;4.30;;;1.87;;
5967;SDS011;3010;51.028;4.170;2022-09-09T11:24:31;4.47;;;1.97;;
5967;SDS011;3010;51.028;4.170;2022-09-09T11:40:42;7.63;;;2.43;;
5967;SDS011;3010;51.028;4.170;2022-09-09T11:43:17;4.43;;;1.90;;
5967;SDS011;3010;51.028;4.170;2022-09-09T11:45:42;3.43;;;1.70;;
5967;SDS011;3010;51.028;4.170;2022-09-09T11:48:25;3.97;;;1.57;;
5967;SDS011;3010;51.028;4.170;2022-09-09T11:50:57;2.27;;;1.70;;
5967;SDS011;3010;51.028;4.170;2022-09-09T11:53:19;4.97;;;1.90;;
5967;SDS011;3010;51.028;4.170;2022-09-09T11:56:07;3.83;;;1.73;;
5967;SDS011;3010;51.028;4.170;2022-09-09T11:58:36;14.47;;;2.13;;
5967;SDS011;3010;51.028;4.170;2022-09-09T12:01:16;2.10;;;1.80;;
5967;SDS011;3010;51.028;4.170;2022-09-09T12:03:46;5.17;;;2.30;;
5967;SDS011;3010;51.028;4.170;2022-09-09T12:06:31;2.67;;;1.70;;
5967;SDS011;3010;51.028;4.170;2022-09-09T12:09:04;2.07;;;1.97;;
5967;SDS011;3010;51.028;4.170;2022-09-09T12:11:28;3.63;;;1.80;;
5967;SDS011;3010;51.028;4.170;2022-09-09T12:13:58;2.43;;;2.33;;
5967;SDS011;3010;51.028;4.170;2022-09-09T12:21:34;2.58;;;1.70;;
5967;SDS011;3010;51.028;4.170;2022-09-09T12:24:08;2.20;;;1.98;;
5967;SDS011;3010;51.028;4.170;2022-09-09T12:26:43;3.57;;;2.53;;
5967;SDS011;3010;51.028;4.170;2022-09-09T12:29:18;5.40;;;2.10;;
5967;SDS011;3010;51.028;4.170;2022-09-09T12:31:46;3.90;;;2.00;;
5967;SDS011;3010;51.028;4.170;2022-09-09T12:34:17;3.87;;;1.80;;
5967;SDS011;3010;51.028;4.170;2022-09-09T12:36:43;5.47;;;2.07;;
5967;SDS011;3010;51.028;4.170;2022-09-09T12:39:10;3.05;;;1.83;;
5967;SDS011;3010;51.028;4.170;2022-09-09T12:41:36;2.47;;;1.93;;
5967;SDS011;3010;51.028;4.170;2022-09-09T12:44:03;2.33;;;1.73;;
5967;SDS011;3010;51.028;4.170;2022-09-09T12:46:33;3.53;;;2.00;;
5967;SDS011;3010;51.028;4.170;2022-09-09T12:48:58;1.90;;;1.70;;
5967;SDS011;3010;51.028;4.170;2022-09-09T12:51:27;2.50;;;1.97;;
5967;SDS011;3010;51.028;4.170;2022-09-09T12:53:54;2.10;;;2.00;;
5967;SDS011;3010;51.028;4.170;2022-09-09T12:56:21;7.47;;;1.70;;
5967;SDS011;3010;51.028;4.170;2022-09-09T12:58:47;2.00;;;1.80;;
5967;SDS011;3010;51.028;4.170;2022-09-09T13:01:26;2.30;;;1.97;;
5967;SDS011;3010;51.028;4.170;2022-09-09T13:03:52;3.20;;;2.00;;
5967;SDS011;3010;51.028;4.170;2022-09-09T13:06:20;2.63;;;1.90;;
5967;SDS011;3010;51.028;4.170;2022-09-09T13:08:45;3.00;;;1.77;;
5967;SDS011;3010;51.028;4.170;2022-09-09T13:11:13;2.12;;;1.90;;
5967;SDS011;3010;51.028;4.170;2022-09-09T13:13:41;2.63;;;1.63;;
5967;SDS011;3010;51.028;4.170;2022-09-09T13:16:25;2.13;;;1.70;;
5967;SDS011;3010;51.028;4.170;2022-09-09T13:18:53;2.10;;;1.47;;
5967;SDS011;3010;51.028;4.170;2022-09-09T13:21:20;2.67;;;1.67;;
5967;SDS011;3010;51.028;4.170;2022-09-09T13:23:49;1.67;;;1.60;;
5967;SDS011;3010;51.028;4.170;2022-09-09T13:26:34;2.08;;;1.62;;
5967;SDS011;3010;51.028;4.170;2022-09-09T13:28:48;3.80;;;2.10;;
5967;SDS011;3010;51.028;4.170;2022-09-09T13:33:57;1.90;;;1.63;;
5967;SDS011;3010;51.028;4.170;2022-09-09T13:36:30;1.57;;;1.30;;
5967;SDS011;3010;51.028;4.170;2022-09-09T13:38:56;1.77;;;1.47;;
5967;SDS011;3010;51.028;4.170;2022-09-09T13:41:25;1.57;;;1.53;;
5967;SDS011;3010;51.028;4.170;2022-09-09T13:43:50;2.70;;;1.60;;
5967;SDS011;3010;51.028;4.170;2022-09-09T13:49:00;1.50;;;1.40;;
5967;SDS011;3010;51.028;4.170;2022-09-09T13:51:35;3.17;;;1.80;;
5967;SDS011;3010;51.028;4.170;2022-09-09T13:54:04;1.87;;;1.70;;
5967;SDS011;3010;51.028;4.170;2022-09-09T13:56:30;2.07;;;1.90;;
5967;SDS011;3010;51.028;4.170;2022-09-09T13:58:56;4.30;;;2.00;;
5967;SDS011;3010;51.028;4.170;2022-09-09T14:01:23;2.70;;;1.80;;
5967;SDS011;3010;51.028;4.170;2022-09-09T14:03:49;3.50;;;2.00;;
5967;SDS011;3010;51.028;4.170;2022-09-09T14:06:16;2.17;;;1.50;;
5967;SDS011;3010;51.028;4.170;2022-09-09T14:08:43;2.87;;;1.80;;
5967;SDS011;3010;51.028;4.170;2022-09-09T14:11:10;4.37;;;1.63;;
5967;SDS011;3010;51.028;4.170;2022-09-09T14:13:36;3.03;;;1.73;;
5967;SDS011;3010;51.028;4.170;2022-09-09T14:16:02;1.73;;;1.50;;
5967;SDS011;3010;51.028;4.170;2022-09-09T14:18:29;1.80;;;1.70;;
5967;SDS011;3010;51.028;4.170;2022-09-09T14:20:56;3.90;;;1.40;;
5967;SDS011;3010;51.028;4.170;2022-09-09T14:23:22;3.07;;;1.60;;
5967;SDS011;3010;51.028;4.170;2022-09-09T14:25:49;1.63;;;1.53;;
5967;SDS011;3010;51.028;4.170;2022-09-09T14:28:15;4.33;;;1.50;;
5967;SDS011;3010;51.028;4.170;2022-09-09T14:30:42;2.57;;;1.57;;
5967;SDS011;3010;51.028;4.170;2022-09-09T14:33:09;2.80;;;1.43;;
5967;SDS011;3010;51.028;4.170;2022-09-09T14:35:35;1.77;;;1.40;;
5967;SDS011;3010;51.028;4.170;2022-09-09T14:38:03;1.48;;;1.40;;
5967;SDS011;3010;51.028;4.170;2022-09-09T14:40:28;1.50;;;1.40;;
5967;SDS011;3010;51.028;4.170;2022-09-09T14:42:55;3.27;;;1.40;;
5967;SDS011;3010;51.028;4.170;2022-09-09T14:45:22;4.63;;;1.50;;
5967;SDS011;3010;51.028;4.170;2022-09-09T14:47:49;4.80;;;2.00;;
5967;SDS011;3010;51.028;4.170;2022-09-09T14:50:15;7.37;;;2.30;;
5967;SDS011;3010;51.028;4.170;2022-09-09T14:52:41;9.53;;;3.73;;
5967;SDS011;3010;51.028;4.170;2022-09-09T14:55:08;10.30;;;3.37;;
5967;SDS011;3010;51.028;4.170;2022-09-09T14:57:34;6.90;;;3.80;;
5967;SDS011;3010;51.028;4.170;2022-09-09T15:00:02;6.07;;;4.07;;
5967;SDS011;3010;51.028;4.170;2022-09-09T15:02:27;2.20;;;2.10;;
5967;SDS011;3010;51.028;4.170;2022-09-09T15:04:54;2.83;;;1.83;;
5967;SDS011;3010;51.028;4.170;2022-09-09T15:07:21;9.47;;;2.23;;
5967;SDS011;3010;51.028;4.170;2022-09-09T15:09:47;2.57;;;2.37;;
5967;SDS011;3010;51.028;4.170;2022-09-09T15:12:14;2.37;;;2.17;;
5967;SDS011;3010;51.028;4.170;2022-09-09T15:14:40;2.00;;;1.90;;
5967;SDS011;3010;51.028;4.170;2022-09-09T15:17:07;2.57;;;2.03;;
5967;SDS011;3010;51.028;4.170;2022-09-09T15:19:34;2.50;;;2.37;;
5967;SDS011;3010;51.028;4.170;2022-09-09T15:22:00;2.30;;;2.10;;
5967;SDS011;3010;51.028;4.170;2022-09-09T15:24:27;2.93;;;1.90;;
5967;SDS011;3010;51.028;4.170;2022-09-09T15:26:53;2.07;;;1.97;;
5967;SDS011;3010;51.028;4.170;2022-09-09T15:29:20;4.70;;;2.57;;
5967;SDS011;3010;51.028;4.170;2022-09-09T15:31:47;3.03;;;2.57;;
5967;SDS011;3010;51.028;4.170;2022-09-09T15:34:13;3.20;;;2.93;;
5967;SDS011;3010;51.028;4.170;2022-09-09T15:36:41;3.80;;;3.17;;
5967;SDS011;3010;51.028;4.170;2022-09-09T15:39:07;4.00;;;3.60;;
5967;SDS011;3010;51.028;4.170;2022-09-09T15:41:33;6.37;;;3.43;;
5967;SDS011;3010;51.028;4.170;2022-09-09T15:44:00;3.87;;;3.23;;
5967;SDS011;3010;51.028;4.170;2022-09-09T15:46:28;4.60;;;4.20;;
5967;SDS011;3010;51.028;4.170;2022-09-09T15:49:06;7.00;;;4.13;;
5967;SDS011;3010;51.028;4.170;2022-09-09T15:51:37;7.60;;;4.33;;
5967;SDS011;3010;51.028;4.170;2022-09-09T15:54:04;5.60;;;4.93;;
5967;SDS011;3010;51.028;4.170;2022-09-09T15:56:30;5.12;;;4.57;;
5967;SDS011;3010;51.028;4.170;2022-09-09T15:58:57;4.53;;;4.10;;
5967;SDS011;3010;51.028;4.170;2022-09-09T16:01:23;5.63;;;3.97;;
5967;SDS011;3010;51.028;4.170;2022-09-09T16:03:50;4.83;;;4.30;;
5967;SDS011;3010;51.028;4.170;2022-09-09T16:06:17;4.70;;;4.30;;
5967;SDS011;3010;51.028;4.170;2022-09-09T16:08:44;6.13;;;4.53;;
5967;SDS011;3010;51.028;4.170;2022-09-09T16:11:11;3.90;;;3.70;;
5967;SDS011;3010;51.028;4.170;2022-09-09T16:13:36;7.10;;;4.63;;
5967;SDS011;3010;51.028;4.170;2022-09-09T16:16:03;7.53;;;4.30;;
5967;SDS011;3010;51.028;4.170;2022-09-09T16:18:35;6.73;;;4.87;;
5967;SDS011;3010;51.028;4.170;2022-09-09T16:21:05;7.23;;;4.90;;
5967;SDS011;3010;51.028;4.170;2022-09-09T16:23:32;5.23;;;4.73;;
5967;SDS011;3010;51.028;4.170;2022-09-09T16:25:58;5.47;;;4.70;;
5967;SDS011;3010;51.028;4.170;2022-09-09T16:28:25;6.70;;;4.87;;
5967;SDS011;3010;51.028;4.170;2022-09-09T16:30:51;6.43;;;4.70;;
5967;SDS011;3010;51.028;4.170;2022-09-09T16:33:18;4.57;;;4.23;;
5967;SDS011;3010;51.028;4.170;2022-09-09T16:35:44;4.63;;;4.23;;
5967;SDS011;3010;51.028;4.170;2022-09-09T16:38:11;5.00;;;3.50;;
5967;SDS011;3010;51.028;4.170;2022-09-09T16:40:38;4.20;;;3.50;;
5967;SDS011;3010;51.028;4.170;2022-09-09T16:43:04;3.63;;;3.43;;
5967;SDS011;3010;51.028;4.170;2022-09-09T16:45:31;3.90;;;3.60;;
5967;SDS011;3010;51.028;4.170;2022-09-09T16:47:58;3.70;;;3.50;;
5967;SDS011;3010;51.028;4.170;2022-09-09T16:50:24;4.30;;;4.00;;
5967;SDS011;3010;51.028;4.170;2022-09-09T16:52:51;5.00;;;4.50;;
5967;SDS011;3010;51.028;4.170;2022-09-09T16:55:17;4.63;;;4.23;;
5967;SDS011;3010;51.028;4.170;2022-09-09T16:57:44;4.20;;;3.90;;
5967;SDS011;3010;51.028;4.170;2022-09-09T17:00:10;5.03;;;4.20;;
5967;SDS011;3010;51.028;4.170;2022-09-09T17:02:37;4.90;;;4.03;;
5967;SDS011;3010;51.028;4.170;2022-09-09T17:05:03;5.27;;;4.87;;
5967;SDS011;3010;51.028;4.170;2022-09-09T17:07:30;5.87;;;4.37;;